TAM3397 SBFI-SBGR
Flight info
| Callsign | TAM3397 |
|---|---|
| Flight time | 1h 6m |
| Altitude | 35000 |
| Route | KAMIL UZ28 XONUG UZ121 BUXUK |
| Aircraft | A321/M-SDE3FGHIRWY/LB1 |
Departure
| Time | 2026-04-30 01:23 |
|---|---|
| Airport | Cataratas International Airport (SBFI) |
Arrival
| Time | 2026-04-30 02:30 |
|---|---|
| Airport | São Paulo/Guarulhos–Governor André Franco Montoro International Airport (SBGR) |
| Time | Latitude | Longitude | Altitude | Speed | Heading |
|---|---|---|---|---|---|
| 2026-04-30 00:58 | -25.59692 | -54.48848 | 799 ft | 0 kts | 221° |
| 2026-04-30 01:16 | -25.59689 | -54.48845 | 798 ft | 3 kts | 220° |
| 2026-04-30 01:16 | -25.59671 | -54.48825 | 798 ft | 4 kts | 248° |
| 2026-04-30 01:16 | -25.59668 | -54.48798 | 798 ft | 4 kts | 295° |
| 2026-04-30 01:17 | -25.59674 | -54.48787 | 798 ft | 0 kts | 311° |
| 2026-04-30 01:19 | -25.59673 | -54.48788 | 798 ft | 1 kts | 311° |
| 2026-04-30 01:19 | -25.59646 | -54.48822 | 798 ft | 11 kts | 311° |
| 2026-04-30 01:19 | -25.59586 | -54.48900 | 799 ft | 12 kts | 310° |
| 2026-04-30 01:20 | -25.59526 | -54.48923 | 799 ft | 9 kts | 26° |
| 2026-04-30 01:20 | -25.59464 | -54.48896 | 801 ft | 14 kts | 345° |
| 2026-04-30 01:20 | -25.59356 | -54.49023 | 799 ft | 29 kts | 310° |
| 2026-04-30 01:20 | -25.59223 | -54.49192 | 799 ft | 29 kts | 311° |
| 2026-04-30 01:21 | -25.59080 | -54.49374 | 796 ft | 34 kts | 311° |
| 2026-04-30 01:21 | -25.58935 | -54.49562 | 796 ft | 32 kts | 311° |
| 2026-04-30 01:21 | -25.58791 | -54.49746 | 800 ft | 30 kts | 310° |
| 2026-04-30 01:21 | -25.58649 | -54.49876 | 801 ft | 22 kts | 342° |
| 2026-04-30 01:22 | -25.58566 | -54.49972 | 801 ft | 12 kts | 253° |
| 2026-04-30 01:22 | -25.58610 | -54.49976 | 802 ft | 8 kts | 146° |
| 2026-04-30 01:22 | -25.58623 | -54.49961 | 802 ft | 0 kts | 133° |
| 2026-04-30 01:22 | -25.58764 | -54.49781 | 800 ft | 69 kts | 130° |
| 2026-04-30 01:23 | -25.59228 | -54.49185 | 800 ft | 133 kts | 130° |
| 2026-04-30 01:23 | -25.59950 | -54.48258 | 916 ft | 175 kts | 131° |
| 2026-04-30 01:23 | -25.60766 | -54.47233 | 1505 ft | 182 kts | 131° |
| 2026-04-30 01:23 | -25.61647 | -54.46101 | 1706 ft | 205 kts | 130° |
| 2026-04-30 01:24 | -25.62527 | -54.44784 | 1932 ft | 223 kts | 115° |
| 2026-04-30 01:24 | -25.62814 | -54.43010 | 2082 ft | 249 kts | 89° |
| 2026-04-30 01:24 | -25.62731 | -54.41075 | 2588 ft | 259 kts | 87° |
| 2026-04-30 01:24 | -25.62599 | -54.39068 | 3266 ft | 263 kts | 86° |
| 2026-04-30 01:25 | -25.62448 | -54.37004 | 3938 ft | 267 kts | 86° |
| 2026-04-30 01:25 | -25.62301 | -54.34964 | 4599 ft | 271 kts | 86° |
| 2026-04-30 01:25 | -25.62157 | -54.32868 | 5230 ft | 275 kts | 86° |
| 2026-04-30 01:25 | -25.62020 | -54.30726 | 5788 ft | 283 kts | 87° |
| 2026-04-30 01:26 | -25.61889 | -54.28522 | 6323 ft | 291 kts | 87° |
| 2026-04-30 01:26 | -25.61757 | -54.26261 | 6829 ft | 298 kts | 87° |
| 2026-04-30 01:26 | -25.61621 | -54.23952 | 7384 ft | 303 kts | 87° |
| 2026-04-30 01:26 | -25.61482 | -54.21612 | 7962 ft | 306 kts | 86° |
| 2026-04-30 01:27 | -25.61341 | -54.19244 | 8538 ft | 310 kts | 86° |
| 2026-04-30 01:27 | -25.61199 | -54.16842 | 9111 ft | 314 kts | 85° |
| 2026-04-30 01:27 | -25.61055 | -54.14410 | 9674 ft | 318 kts | 84° |
| 2026-04-30 01:27 | -25.60907 | -54.11952 | 10176 ft | 324 kts | 84° |
| 2026-04-30 01:28 | -25.60749 | -54.09382 | 10291 ft | 344 kts | 84° |
| 2026-04-30 01:28 | -25.60580 | -54.06668 | 10413 ft | 362 kts | 84° |
| 2026-04-30 01:28 | -25.60405 | -54.03841 | 10669 ft | 373 kts | 85° |
| 2026-04-30 01:28 | -25.60229 | -54.00957 | 11115 ft | 377 kts | 85° |
| 2026-04-30 01:29 | -25.60053 | -53.98049 | 11580 ft | 380 kts | 85° |
| 2026-04-30 01:29 | -25.59875 | -53.95112 | 12041 ft | 384 kts | 85° |
| 2026-04-30 01:29 | -25.59693 | -53.92145 | 12510 ft | 387 kts | 85° |
| 2026-04-30 01:29 | -25.59508 | -53.89157 | 12961 ft | 390 kts | 86° |
| 2026-04-30 01:30 | -25.59322 | -53.86150 | 13406 ft | 393 kts | 86° |
| 2026-04-30 01:30 | -25.59138 | -53.83158 | 13835 ft | 396 kts | 86° |
| 2026-04-30 01:30 | -25.58948 | -53.80056 | 14206 ft | 400 kts | 87° |
| 2026-04-30 01:30 | -25.58741 | -53.77009 | 14559 ft | 404 kts | 84° |
| 2026-04-30 01:31 | -25.58238 | -53.73940 | 14937 ft | 407 kts | 78° |
| 2026-04-30 01:31 | -25.57659 | -53.70861 | 15342 ft | 409 kts | 78° |
| 2026-04-30 01:31 | -25.57083 | -53.67772 | 15740 ft | 411 kts | 78° |
| 2026-04-30 01:31 | -25.56504 | -53.64655 | 16129 ft | 414 kts | 78° |
| 2026-04-30 01:32 | -25.55925 | -53.61526 | 16512 ft | 416 kts | 78° |
| 2026-04-30 01:32 | -25.55342 | -53.58374 | 16907 ft | 419 kts | 78° |
| 2026-04-30 01:32 | -25.54753 | -53.55205 | 17273 ft | 422 kts | 78° |
| 2026-04-30 01:32 | -25.54156 | -53.52018 | 17659 ft | 424 kts | 78° |
| 2026-04-30 01:33 | -25.53553 | -53.48811 | 18038 ft | 427 kts | 78° |
| 2026-04-30 01:33 | -25.52945 | -53.45583 | 18412 ft | 430 kts | 78° |
| 2026-04-30 01:33 | -25.52333 | -53.42336 | 18749 ft | 432 kts | 78° |
| 2026-04-30 01:33 | -25.51720 | -53.39074 | 19093 ft | 434 kts | 78° |
| 2026-04-30 01:34 | -25.51101 | -53.35793 | 19432 ft | 436 kts | 78° |
| 2026-04-30 01:34 | -25.50480 | -53.32500 | 19772 ft | 438 kts | 78° |
| 2026-04-30 01:34 | -25.49855 | -53.29186 | 20107 ft | 440 kts | 78° |
| 2026-04-30 01:34 | -25.49228 | -53.25863 | 20437 ft | 442 kts | 78° |
| 2026-04-30 01:35 | -25.48595 | -53.22528 | 20775 ft | 444 kts | 78° |
| 2026-04-30 01:35 | -25.47959 | -53.19178 | 21114 ft | 446 kts | 78° |
| 2026-04-30 01:35 | -25.47322 | -53.15815 | 21442 ft | 447 kts | 78° |
| 2026-04-30 01:35 | -25.46682 | -53.12440 | 21759 ft | 449 kts | 78° |
| 2026-04-30 01:36 | -25.46039 | -53.09048 | 22069 ft | 452 kts | 77° |
| 2026-04-30 01:36 | -25.45391 | -53.05639 | 22381 ft | 453 kts | 77° |
| 2026-04-30 01:36 | -25.44739 | -53.02218 | 22690 ft | 455 kts | 77° |
| 2026-04-30 01:36 | -25.44085 | -52.98783 | 22991 ft | 457 kts | 77° |
| 2026-04-30 01:37 | -25.43425 | -52.95339 | 23345 ft | 458 kts | 77° |
| 2026-04-30 01:37 | -25.42760 | -52.91893 | 23674 ft | 459 kts | 77° |
| 2026-04-30 01:37 | -25.42091 | -52.88427 | 23936 ft | 461 kts | 77° |
| 2026-04-30 01:37 | -25.41421 | -52.84952 | 24197 ft | 463 kts | 77° |
| 2026-04-30 01:38 | -25.40746 | -52.81463 | 24456 ft | 465 kts | 76° |
| 2026-04-30 01:38 | -25.40068 | -52.77956 | 24707 ft | 467 kts | 76° |
| 2026-04-30 01:38 | -25.39388 | -52.74436 | 24975 ft | 469 kts | 76° |
| 2026-04-30 01:38 | -25.38716 | -52.70955 | 25224 ft | 471 kts | 76° |
| 2026-04-30 01:39 | -25.38031 | -52.67408 | 25472 ft | 473 kts | 76° |
| 2026-04-30 01:39 | -25.37340 | -52.63846 | 25727 ft | 475 kts | 76° |
| 2026-04-30 01:39 | -25.36641 | -52.60266 | 25971 ft | 477 kts | 75° |
| 2026-04-30 01:39 | -25.35940 | -52.56674 | 26215 ft | 479 kts | 75° |
| 2026-04-30 01:40 | -25.35239 | -52.53067 | 26458 ft | 481 kts | 75° |
| 2026-04-30 01:40 | -25.34536 | -52.49446 | 26680 ft | 483 kts | 75° |
| 2026-04-30 01:40 | -25.33827 | -52.45806 | 26909 ft | 486 kts | 75° |
| 2026-04-30 01:40 | -25.33109 | -52.42144 | 27150 ft | 488 kts | 75° |
| 2026-04-30 01:41 | -25.32385 | -52.38469 | 27391 ft | 490 kts | 75° |
| 2026-04-30 01:41 | -25.31661 | -52.34781 | 27627 ft | 493 kts | 75° |
| 2026-04-30 01:41 | -25.30933 | -52.31074 | 27858 ft | 495 kts | 74° |
| 2026-04-30 01:41 | -25.30201 | -52.27353 | 28082 ft | 497 kts | 74° |
| 2026-04-30 01:42 | -25.29468 | -52.23614 | 28310 ft | 499 kts | 74° |
| 2026-04-30 01:42 | -25.28730 | -52.19864 | 28533 ft | 501 kts | 74° |
| 2026-04-30 01:42 | -25.27983 | -52.16098 | 28762 ft | 503 kts | 73° |
| 2026-04-30 01:42 | -25.27230 | -52.12315 | 28983 ft | 505 kts | 73° |
| 2026-04-30 01:43 | -25.26474 | -52.08526 | 29217 ft | 507 kts | 73° |
| 2026-04-30 01:43 | -25.25713 | -52.04712 | 29437 ft | 509 kts | 73° |
| 2026-04-30 01:43 | -25.24947 | -52.00892 | 29660 ft | 510 kts | 73° |
| 2026-04-30 01:43 | -25.24178 | -51.97053 | 29868 ft | 512 kts | 73° |
| 2026-04-30 01:44 | -25.23409 | -51.93208 | 30064 ft | 514 kts | 72° |
| 2026-04-30 01:44 | -25.22642 | -51.89351 | 30258 ft | 515 kts | 72° |
| 2026-04-30 01:44 | -25.21868 | -51.85475 | 30411 ft | 517 kts | 72° |
| 2026-04-30 01:44 | -25.21095 | -51.81597 | 30574 ft | 519 kts | 72° |
| 2026-04-30 01:45 | -25.20324 | -51.77753 | 30733 ft | 519 kts | 72° |
| 2026-04-30 01:45 | -25.19540 | -51.73861 | 30931 ft | 519 kts | 72° |
| 2026-04-30 01:45 | -25.18756 | -51.69975 | 31154 ft | 519 kts | 72° |
| 2026-04-30 01:45 | -25.17961 | -51.66030 | 31352 ft | 519 kts | 71° |
| 2026-04-30 01:46 | -25.17185 | -51.62194 | 31536 ft | 519 kts | 71° |
| 2026-04-30 01:46 | -25.16394 | -51.58306 | 31725 ft | 519 kts | 71° |
| 2026-04-30 01:46 | -25.15601 | -51.54422 | 31902 ft | 519 kts | 71° |
| 2026-04-30 01:46 | -25.14805 | -51.50531 | 32099 ft | 520 kts | 71° |
| 2026-04-30 01:47 | -25.14013 | -51.46643 | 32288 ft | 520 kts | 71° |
| 2026-04-30 01:47 | -25.13220 | -51.42750 | 32475 ft | 520 kts | 71° |
| 2026-04-30 01:47 | -25.12425 | -51.38852 | 32661 ft | 521 kts | 71° |
| 2026-04-30 01:47 | -25.11631 | -51.34955 | 32841 ft | 521 kts | 71° |
| 2026-04-30 01:48 | -25.10831 | -51.31055 | 32998 ft | 522 kts | 71° |
| 2026-04-30 01:48 | -25.10028 | -51.27150 | 33164 ft | 522 kts | 71° |
| 2026-04-30 01:48 | -25.09224 | -51.23244 | 33332 ft | 522 kts | 71° |
| 2026-04-30 01:48 | -25.08423 | -51.19336 | 33471 ft | 522 kts | 70° |
| 2026-04-30 01:49 | -25.07621 | -51.15429 | 33638 ft | 523 kts | 70° |
| 2026-04-30 01:49 | -25.06818 | -51.11521 | 33828 ft | 523 kts | 70° |
| 2026-04-30 01:49 | -25.06011 | -51.07611 | 33995 ft | 523 kts | 70° |
| 2026-04-30 01:49 | -25.05198 | -51.03703 | 34183 ft | 523 kts | 70° |
| 2026-04-30 01:50 | -25.04387 | -50.99799 | 34346 ft | 523 kts | 70° |
| 2026-04-30 01:50 | -25.03574 | -50.95893 | 34527 ft | 522 kts | 70° |
| 2026-04-30 01:50 | -25.02756 | -50.91993 | 34693 ft | 522 kts | 70° |
| 2026-04-30 01:50 | -25.01936 | -50.88093 | 34851 ft | 522 kts | 70° |
| 2026-04-30 01:51 | -25.01118 | -50.84193 | 35001 ft | 522 kts | 70° |
| 2026-04-30 01:51 | -25.00300 | -50.80299 | 35098 ft | 521 kts | 70° |
| 2026-04-30 01:51 | -24.98673 | -50.72536 | 35126 ft | 519 kts | 70° |
| 2026-04-30 01:52 | -24.97053 | -50.64829 | 35126 ft | 520 kts | 70° |
| 2026-04-30 01:52 | -24.95415 | -50.57064 | 35132 ft | 520 kts | 70° |
| 2026-04-30 01:53 | -24.93770 | -50.49309 | 35135 ft | 520 kts | 70° |
| 2026-04-30 01:53 | -24.92117 | -50.41550 | 35124 ft | 520 kts | 70° |
| 2026-04-30 01:54 | -24.90475 | -50.33791 | 35147 ft | 520 kts | 70° |
| 2026-04-30 01:54 | -24.88830 | -50.26041 | 35149 ft | 519 kts | 70° |
| 2026-04-30 01:55 | -24.87174 | -50.18303 | 35123 ft | 519 kts | 71° |
| 2026-04-30 01:55 | -24.85511 | -50.10585 | 35154 ft | 517 kts | 71° |
| 2026-04-30 01:56 | -24.83854 | -50.02897 | 35155 ft | 515 kts | 71° |
| 2026-04-30 01:56 | -24.82200 | -49.95231 | 35141 ft | 514 kts | 72° |
| 2026-04-30 01:57 | -24.80546 | -49.87586 | 35146 ft | 513 kts | 72° |
| 2026-04-30 01:57 | -24.78854 | -49.79972 | 35145 ft | 511 kts | 71° |
| 2026-04-30 01:58 | -24.76913 | -49.72465 | 35146 ft | 509 kts | 69° |
| 2026-04-30 01:58 | -24.74863 | -49.65014 | 35134 ft | 509 kts | 69° |
| 2026-04-30 01:59 | -24.72200 | -49.55070 | 35126 ft | 509 kts | 70° |
| 2026-04-30 02:00 | -24.70248 | -49.47580 | 35119 ft | 509 kts | 70° |
| 2026-04-30 02:00 | -24.68293 | -49.40103 | 35117 ft | 509 kts | 70° |
| 2026-04-30 02:01 | -24.66331 | -49.32633 | 35117 ft | 509 kts | 70° |
| 2026-04-30 02:01 | -24.64377 | -49.25161 | 35108 ft | 509 kts | 70° |
| 2026-04-30 02:02 | -24.62422 | -49.17686 | 35108 ft | 509 kts | 70° |
| 2026-04-30 02:02 | -24.60442 | -49.10225 | 35103 ft | 509 kts | 70° |
| 2026-04-30 02:03 | -24.58425 | -49.02776 | 35097 ft | 509 kts | 69° |
| 2026-04-30 02:03 | -24.56403 | -48.95320 | 35103 ft | 509 kts | 69° |
| 2026-04-30 02:04 | -24.54383 | -48.87865 | 35107 ft | 510 kts | 69° |
| 2026-04-30 02:04 | -24.52359 | -48.80404 | 35103 ft | 509 kts | 69° |
| 2026-04-30 02:05 | -24.50349 | -48.73001 | 35096 ft | 509 kts | 70° |
| 2026-04-30 02:05 | -24.48332 | -48.65543 | 35100 ft | 510 kts | 70° |
| 2026-04-30 02:06 | -24.46315 | -48.58083 | 35103 ft | 510 kts | 69° |
| 2026-04-30 02:06 | -24.44291 | -48.50624 | 35103 ft | 510 kts | 69° |
| 2026-04-30 02:07 | -24.42264 | -48.43165 | 35094 ft | 510 kts | 69° |
| 2026-04-30 02:07 | -24.40237 | -48.35717 | 35101 ft | 509 kts | 69° |
| 2026-04-30 02:08 | -24.38205 | -48.28276 | 35103 ft | 509 kts | 69° |
| 2026-04-30 02:08 | -24.35853 | -48.21001 | 35093 ft | 501 kts | 57° |
| 2026-04-30 02:08 | -24.34026 | -48.17797 | 35096 ft | 492 kts | 46° |
| 2026-04-30 02:09 | -24.31780 | -48.15017 | 35099 ft | 482 kts | 36° |
| 2026-04-30 02:09 | -24.26395 | -48.10928 | 35095 ft | 466 kts | 21° |
| 2026-04-30 02:10 | -24.20673 | -48.07575 | 35089 ft | 466 kts | 21° |
| 2026-04-30 02:10 | -24.14948 | -48.04208 | 35093 ft | 467 kts | 21° |
| 2026-04-30 02:11 | -24.09223 | -48.00833 | 35089 ft | 468 kts | 21° |
| 2026-04-30 02:11 | -24.06357 | -47.99146 | 34981 ft | 466 kts | 21° |
| 2026-04-30 02:11 | -24.03514 | -47.97472 | 34453 ft | 464 kts | 21° |
| 2026-04-30 02:11 | -24.00675 | -47.95805 | 33897 ft | 463 kts | 21° |
| 2026-04-30 02:12 | -23.97846 | -47.94147 | 33388 ft | 459 kts | 21° |
| 2026-04-30 02:12 | -23.95041 | -47.92502 | 32891 ft | 456 kts | 21° |
| 2026-04-30 02:12 | -23.92257 | -47.90868 | 32374 ft | 453 kts | 21° |
| 2026-04-30 02:12 | -23.89484 | -47.89246 | 31860 ft | 450 kts | 21° |
| 2026-04-30 02:13 | -23.86732 | -47.87638 | 31358 ft | 447 kts | 21° |
| 2026-04-30 02:13 | -23.83999 | -47.86041 | 30859 ft | 444 kts | 21° |
| 2026-04-30 02:13 | -23.81282 | -47.84448 | 30363 ft | 442 kts | 21° |
| 2026-04-30 02:13 | -23.78586 | -47.82866 | 29825 ft | 439 kts | 21° |
| 2026-04-30 02:14 | -23.76017 | -47.81058 | 29361 ft | 442 kts | 32° |
| 2026-04-30 02:14 | -23.73733 | -47.78792 | 28876 ft | 442 kts | 37° |
| 2026-04-30 02:14 | -23.71541 | -47.76471 | 28415 ft | 437 kts | 37° |
| 2026-04-30 02:14 | -23.69368 | -47.74176 | 27959 ft | 432 kts | 37° |
| 2026-04-30 02:15 | -23.67216 | -47.71910 | 27523 ft | 427 kts | 37° |
| 2026-04-30 02:15 | -23.65089 | -47.69673 | 27092 ft | 423 kts | 37° |
| 2026-04-30 02:15 | -23.62988 | -47.67459 | 26763 ft | 416 kts | 37° |
| 2026-04-30 02:15 | -23.60920 | -47.65278 | 26462 ft | 412 kts | 37° |
| 2026-04-30 02:16 | -23.58865 | -47.63119 | 26152 ft | 409 kts | 37° |
| 2026-04-30 02:16 | -23.56818 | -47.60978 | 25854 ft | 407 kts | 37° |
| 2026-04-30 02:16 | -23.54861 | -47.58738 | 25159 ft | 414 kts | 48° |
| 2026-04-30 02:16 | -23.53496 | -47.55936 | 24166 ft | 428 kts | 68° |
| 2026-04-30 02:17 | -23.52911 | -47.52724 | 23079 ft | 435 kts | 79° |
| 2026-04-30 02:17 | -23.52523 | -47.49461 | 22090 ft | 432 kts | 79° |
| 2026-04-30 02:17 | -23.52148 | -47.46242 | 21295 ft | 424 kts | 79° |
| 2026-04-30 02:17 | -23.51776 | -47.43078 | 20488 ft | 418 kts | 80° |
| 2026-04-30 02:18 | -23.51403 | -47.39967 | 19699 ft | 411 kts | 80° |
| 2026-04-30 02:18 | -23.51030 | -47.36903 | 18902 ft | 405 kts | 80° |
| 2026-04-30 02:18 | -23.50657 | -47.33887 | 18102 ft | 399 kts | 80° |
| 2026-04-30 02:18 | -23.50285 | -47.30919 | 17248 ft | 392 kts | 81° |
| 2026-04-30 02:19 | -23.49917 | -47.27996 | 16433 ft | 386 kts | 81° |
| 2026-04-30 02:19 | -23.49557 | -47.25123 | 15636 ft | 380 kts | 81° |
| 2026-04-30 02:19 | -23.49205 | -47.22295 | 14866 ft | 374 kts | 81° |
| 2026-04-30 02:19 | -23.48859 | -47.19515 | 14114 ft | 368 kts | 81° |
| 2026-04-30 02:20 | -23.48520 | -47.16778 | 13337 ft | 361 kts | 82° |
| 2026-04-30 02:20 | -23.48190 | -47.14111 | 12800 ft | 347 kts | 82° |
| 2026-04-30 02:20 | -23.47873 | -47.11579 | 12519 ft | 334 kts | 81° |
| 2026-04-30 02:20 | -23.47558 | -47.09085 | 12140 ft | 330 kts | 81° |
| 2026-04-30 02:21 | -23.47248 | -47.06621 | 11741 ft | 327 kts | 82° |
| 2026-04-30 02:21 | -23.46947 | -47.04210 | 11350 ft | 324 kts | 82° |
| 2026-04-30 02:21 | -23.46645 | -47.01798 | 11037 ft | 316 kts | 82° |
| 2026-04-30 02:21 | -23.46354 | -46.99465 | 10603 ft | 305 kts | 82° |
| 2026-04-30 02:22 | -23.46075 | -46.97225 | 10244 ft | 293 kts | 82° |
| 2026-04-30 02:22 | -23.45803 | -46.95035 | 9893 ft | 292 kts | 82° |
| 2026-04-30 02:22 | -23.45530 | -46.92850 | 9516 ft | 290 kts | 81° |
| 2026-04-30 02:22 | -23.45257 | -46.90683 | 9166 ft | 288 kts | 81° |
| 2026-04-30 02:23 | -23.44983 | -46.88526 | 8818 ft | 286 kts | 81° |
| 2026-04-30 02:23 | -23.44712 | -46.86389 | 8535 ft | 285 kts | 81° |
| 2026-04-30 02:23 | -23.44440 | -46.84251 | 8194 ft | 284 kts | 81° |
| 2026-04-30 02:23 | -23.44168 | -46.82125 | 7859 ft | 283 kts | 80° |
| 2026-04-30 02:24 | -23.43898 | -46.80009 | 7523 ft | 282 kts | 80° |
| 2026-04-30 02:24 | -23.43629 | -46.77896 | 7189 ft | 281 kts | 80° |
| 2026-04-30 02:24 | -23.43363 | -46.75790 | 6853 ft | 281 kts | 80° |
| 2026-04-30 02:24 | -23.43097 | -46.73691 | 6509 ft | 276 kts | 80° |
| 2026-04-30 02:25 | -23.42980 | -46.71659 | 6173 ft | 264 kts | 94° |
| 2026-04-30 02:25 | -23.43367 | -46.69765 | 5890 ft | 252 kts | 110° |
| 2026-04-30 02:25 | -23.44190 | -46.68115 | 5657 ft | 242 kts | 124° |
| 2026-04-30 02:25 | -23.45105 | -46.66679 | 5439 ft | 220 kts | 123° |
| 2026-04-30 02:26 | -23.45938 | -46.65354 | 5230 ft | 206 kts | 124° |
| 2026-04-30 02:26 | -23.46647 | -46.64042 | 5026 ft | 197 kts | 110° |
| 2026-04-30 02:26 | -23.46962 | -46.62641 | 4855 ft | 183 kts | 92° |
| 2026-04-30 02:26 | -23.46861 | -46.61293 | 4670 ft | 176 kts | 74° |
| 2026-04-30 02:27 | -23.46563 | -46.60041 | 4594 ft | 167 kts | 71° |
| 2026-04-30 02:27 | -23.46250 | -46.58837 | 4429 ft | 165 kts | 70° |
| 2026-04-30 02:27 | -23.45935 | -46.57651 | 4246 ft | 161 kts | 70° |
| 2026-04-30 02:27 | -23.45624 | -46.56490 | 4044 ft | 158 kts | 71° |
| 2026-04-30 02:28 | -23.45318 | -46.55353 | 3857 ft | 155 kts | 71° |
| 2026-04-30 02:28 | -23.45017 | -46.54235 | 3640 ft | 152 kts | 71° |
| 2026-04-30 02:28 | -23.44721 | -46.53135 | 3462 ft | 151 kts | 71° |
| 2026-04-30 02:28 | -23.44427 | -46.52044 | 3251 ft | 149 kts | 72° |
| 2026-04-30 02:29 | -23.44135 | -46.50962 | 3042 ft | 149 kts | 74° |
| 2026-04-30 02:29 | -23.43843 | -46.49877 | 2841 ft | 150 kts | 75° |
| 2026-04-30 02:29 | -23.43555 | -46.48794 | 2610 ft | 149 kts | 75° |
| 2026-04-30 02:29 | -23.43268 | -46.47730 | 2468 ft | 137 kts | 74° |
| 2026-04-30 02:30 | -23.43039 | -46.46891 | 2463 ft | 91 kts | 73° |
| 2026-04-30 02:30 | -23.42901 | -46.46385 | 2463 ft | 47 kts | 73° |
| 2026-04-30 02:30 | -23.42841 | -46.46205 | 2463 ft | 11 kts | 46° |
| 2026-04-30 02:30 | -23.42776 | -46.46196 | 2465 ft | 7 kts | 343° |
| 2026-04-30 02:31 | -23.42739 | -46.46208 | 2462 ft | 6 kts | 343° |
| 2026-04-30 02:31 | -23.42693 | -46.46223 | 2465 ft | 8 kts | 343° |
| 2026-04-30 02:31 | -23.42639 | -46.46241 | 2461 ft | 8 kts | 341° |
| 2026-04-30 02:31 | -23.42616 | -46.46285 | 2463 ft | 7 kts | 262° |
| 2026-04-30 02:32 | -23.42629 | -46.46336 | 2463 ft | 7 kts | 254° |
| 2026-04-30 02:32 | -23.42644 | -46.46392 | 2463 ft | 8 kts | 253° |
| 2026-04-30 02:32 | -23.42661 | -46.46456 | 2464 ft | 9 kts | 253° |
| 2026-04-30 02:32 | -23.42681 | -46.46528 | 2464 ft | 10 kts | 253° |
| 2026-04-30 02:33 | -23.42703 | -46.46607 | 2465 ft | 11 kts | 254° |
| 2026-04-30 02:33 | -23.42727 | -46.46695 | 2464 ft | 13 kts | 253° |
| 2026-04-30 02:33 | -23.42754 | -46.46798 | 2465 ft | 15 kts | 255° |
| 2026-04-30 02:33 | -23.42786 | -46.46916 | 2465 ft | 17 kts | 253° |
| 2026-04-30 02:34 | -23.42822 | -46.47047 | 2461 ft | 19 kts | 254° |
| 2026-04-30 02:34 | -23.42861 | -46.47192 | 2462 ft | 21 kts | 253° |
| 2026-04-30 02:34 | -23.42901 | -46.47338 | 2463 ft | 18 kts | 252° |
| 2026-04-30 02:34 | -23.42934 | -46.47458 | 2465 ft | 15 kts | 254° |
| 2026-04-30 02:35 | -23.42961 | -46.47557 | 2461 ft | 13 kts | 253° |
| 2026-04-30 02:35 | -23.42987 | -46.47653 | 2463 ft | 13 kts | 253° |
| 2026-04-30 02:35 | -23.43015 | -46.47756 | 2463 ft | 15 kts | 253° |
| 2026-04-30 02:35 | -23.43046 | -46.47870 | 2464 ft | 16 kts | 253° |
| 2026-04-30 02:36 | -23.43078 | -46.47989 | 2462 ft | 17 kts | 255° |
| 2026-04-30 02:36 | -23.43093 | -46.48108 | 2465 ft | 15 kts | 301° |
| 2026-04-30 02:36 | -23.42993 | -46.48138 | 2464 ft | 16 kts | 356° |
| 2026-04-30 02:36 | -23.42880 | -46.48150 | 2464 ft | 16 kts | 353° |
| 2026-04-30 02:37 | -23.42800 | -46.48142 | 2469 ft | 9 kts | 51° |
| 2026-04-30 02:37 | -23.42793 | -46.48079 | 2463 ft | 3 kts | 84° |
| 2026-04-30 02:37 | -23.42792 | -46.48070 | 2464 ft | 0 kts | 84° |